sensor_id;sensor_type;location;lat;lon;timestamp;P1;durP1;ratioP1;P2;durP2;ratioP2
10851;SDS011;5479;52.046;6.314;2022-10-31T00:01:34;15.47;;;11.53;;
10851;SDS011;5479;52.046;6.314;2022-10-31T00:04:05;14.00;;;11.37;;
10851;SDS011;5479;52.046;6.314;2022-10-31T00:06:34;14.73;;;11.33;;
10851;SDS011;5479;52.046;6.314;2022-10-31T00:09:03;17.63;;;12.40;;
10851;SDS011;5479;52.046;6.314;2022-10-31T00:11:31;18.37;;;12.60;;
10851;SDS011;5479;52.046;6.314;2022-10-31T00:14:00;18.10;;;12.87;;
10851;SDS011;5479;52.046;6.314;2022-10-31T00:16:29;18.03;;;12.27;;
10851;SDS011;5479;52.046;6.314;2022-10-31T00:18:57;15.47;;;11.70;;
10851;SDS011;5479;52.046;6.314;2022-10-31T00:21:26;15.67;;;12.00;;
10851;SDS011;5479;52.046;6.314;2022-10-31T00:23:56;14.43;;;11.27;;
10851;SDS011;5479;52.046;6.314;2022-10-31T00:26:25;13.37;;;10.67;;
10851;SDS011;5479;52.046;6.314;2022-10-31T00:28:54;12.77;;;10.03;;
10851;SDS011;5479;52.046;6.314;2022-10-31T00:31:22;12.33;;;9.57;;
10851;SDS011;5479;52.046;6.314;2022-10-31T00:33:50;12.87;;;9.80;;
10851;SDS011;5479;52.046;6.314;2022-10-31T00:36:18;12.73;;;10.20;;
10851;SDS011;5479;52.046;6.314;2022-10-31T00:38:47;12.17;;;9.20;;
10851;SDS011;5479;52.046;6.314;2022-10-31T00:41:16;11.90;;;9.43;;
10851;SDS011;5479;52.046;6.314;2022-10-31T00:43:46;15.57;;;10.57;;
10851;SDS011;5479;52.046;6.314;2022-10-31T00:46:14;15.20;;;12.10;;
10851;SDS011;5479;52.046;6.314;2022-10-31T00:48:42;16.53;;;12.63;;
10851;SDS011;5479;52.046;6.314;2022-10-31T00:51:10;16.57;;;12.80;;
10851;SDS011;5479;52.046;6.314;2022-10-31T00:53:39;15.03;;;12.50;;
10851;SDS011;5479;52.046;6.314;2022-10-31T00:56:09;18.57;;;12.63;;
10851;SDS011;5479;52.046;6.314;2022-10-31T00:58:37;14.97;;;12.17;;
10851;SDS011;5479;52.046;6.314;2022-10-31T01:01:06;14.20;;;11.20;;
10851;SDS011;5479;52.046;6.314;2022-10-31T01:03:35;15.17;;;12.33;;
10851;SDS011;5479;52.046;6.314;2022-10-31T01:06:05;17.90;;;12.30;;
10851;SDS011;5479;52.046;6.314;2022-10-31T01:08:35;14.63;;;11.63;;
10851;SDS011;5479;52.046;6.314;2022-10-31T01:11:05;17.20;;;13.13;;
10851;SDS011;5479;52.046;6.314;2022-10-31T01:13:35;18.03;;;14.03;;
10851;SDS011;5479;52.046;6.314;2022-10-31T01:16:05;15.73;;;11.50;;
10851;SDS011;5479;52.046;6.314;2022-10-31T01:18:37;16.20;;;12.40;;
10851;SDS011;5479;52.046;6.314;2022-10-31T01:21:07;16.20;;;12.80;;
10851;SDS011;5479;52.046;6.314;2022-10-31T01:23:36;18.10;;;13.33;;
10851;SDS011;5479;52.046;6.314;2022-10-31T01:26:06;17.30;;;13.00;;
10851;SDS011;5479;52.046;6.314;2022-10-31T01:28:35;15.13;;;12.13;;
10851;SDS011;5479;52.046;6.314;2022-10-31T01:31:05;14.30;;;12.03;;
10851;SDS011;5479;52.046;6.314;2022-10-31T01:33:37;16.43;;;12.33;;
10851;SDS011;5479;52.046;6.314;2022-10-31T01:36:12;18.93;;;12.73;;
10851;SDS011;5479;52.046;6.314;2022-10-31T01:38:42;15.13;;;12.00;;
10851;SDS011;5479;52.046;6.314;2022-10-31T01:41:11;17.90;;;12.83;;
10851;SDS011;5479;52.046;6.314;2022-10-31T01:43:44;16.20;;;11.87;;
10851;SDS011;5479;52.046;6.314;2022-10-31T01:46:15;18.23;;;12.53;;
10851;SDS011;5479;52.046;6.314;2022-10-31T01:48:47;17.53;;;12.57;;
10851;SDS011;5479;52.046;6.314;2022-10-31T01:51:15;16.97;;;12.13;;
10851;SDS011;5479;52.046;6.314;2022-10-31T01:53:45;13.63;;;10.93;;
10851;SDS011;5479;52.046;6.314;2022-10-31T01:56:13;13.27;;;9.10;;
10851;SDS011;5479;52.046;6.314;2022-10-31T01:58:44;9.80;;;8.30;;
10851;SDS011;5479;52.046;6.314;2022-10-31T02:01:15;10.80;;;8.23;;
10851;SDS011;5479;52.046;6.314;2022-10-31T02:03:44;13.63;;;10.47;;
10851;SDS011;5479;52.046;6.314;2022-10-31T02:06:17;17.77;;;10.63;;
10851;SDS011;5479;52.046;6.314;2022-10-31T02:08:55;13.80;;;11.03;;
10851;SDS011;5479;52.046;6.314;2022-10-31T02:11:26;17.17;;;12.33;;
10851;SDS011;5479;52.046;6.314;2022-10-31T02:13:55;15.63;;;11.97;;
10851;SDS011;5479;52.046;6.314;2022-10-31T02:16:27;14.00;;;11.20;;
10851;SDS011;5479;52.046;6.314;2022-10-31T02:18:54;15.57;;;11.97;;
10851;SDS011;5479;52.046;6.314;2022-10-31T02:21:24;15.30;;;11.20;;
10851;SDS011;5479;52.046;6.314;2022-10-31T02:24:14;11.80;;;10.00;;
10851;SDS011;5479;52.046;6.314;2022-10-31T02:27:13;12.20;;;9.07;;
10851;SDS011;5479;52.046;6.314;2022-10-31T02:30:05;13.43;;;9.87;;
10851;SDS011;5479;52.046;6.314;2022-10-31T02:32:44;13.63;;;9.97;;
10851;SDS011;5479;52.046;6.314;2022-10-31T02:35:23;14.63;;;11.87;;
10851;SDS011;5479;52.046;6.314;2022-10-31T02:38:03;16.00;;;10.83;;
10851;SDS011;5479;52.046;6.314;2022-10-31T02:40:38;16.03;;;11.47;;
10851;SDS011;5479;52.046;6.314;2022-10-31T02:43:15;15.17;;;12.13;;
10851;SDS011;5479;52.046;6.314;2022-10-31T02:45:50;15.83;;;11.40;;
10851;SDS011;5479;52.046;6.314;2022-10-31T02:48:26;16.87;;;12.63;;
10851;SDS011;5479;52.046;6.314;2022-10-31T02:50:56;16.77;;;12.77;;
10851;SDS011;5479;52.046;6.314;2022-10-31T02:53:31;17.83;;;13.47;;
10851;SDS011;5479;52.046;6.314;2022-10-31T02:56:00;18.90;;;14.27;;
10851;SDS011;5479;52.046;6.314;2022-10-31T02:58:32;20.47;;;14.43;;
10851;SDS011;5479;52.046;6.314;2022-10-31T03:01:10;18.27;;;14.47;;
10851;SDS011;5479;52.046;6.314;2022-10-31T03:03:58;17.60;;;14.43;;
10851;SDS011;5479;52.046;6.314;2022-10-31T03:06:41;20.10;;;16.00;;
10851;SDS011;5479;52.046;6.314;2022-10-31T03:09:16;19.57;;;15.80;;
10851;SDS011;5479;52.046;6.314;2022-10-31T03:11:53;20.73;;;16.43;;
10851;SDS011;5479;52.046;6.314;2022-10-31T03:14:26;19.80;;;16.40;;
10851;SDS011;5479;52.046;6.314;2022-10-31T03:17:01;20.73;;;15.87;;
10851;SDS011;5479;52.046;6.314;2022-10-31T03:19:37;18.10;;;15.60;;
10851;SDS011;5479;52.046;6.314;2022-10-31T03:22:10;20.37;;;14.83;;
10851;SDS011;5479;52.046;6.314;2022-10-31T03:24:44;20.20;;;15.13;;
10851;SDS011;5479;52.046;6.314;2022-10-31T03:27:14;19.07;;;14.77;;
10851;SDS011;5479;52.046;6.314;2022-10-31T03:29:45;18.37;;;14.60;;
10851;SDS011;5479;52.046;6.314;2022-10-31T03:32:18;17.63;;;13.23;;
10851;SDS011;5479;52.046;6.314;2022-10-31T03:34:51;17.13;;;14.37;;
10851;SDS011;5479;52.046;6.314;2022-10-31T03:37:24;18.53;;;14.40;;
10851;SDS011;5479;52.046;6.314;2022-10-31T03:39:55;15.10;;;12.67;;
10851;SDS011;5479;52.046;6.314;2022-10-31T03:42:27;16.53;;;13.20;;
10851;SDS011;5479;52.046;6.314;2022-10-31T03:44:57;15.23;;;12.73;;
10851;SDS011;5479;52.046;6.314;2022-10-31T03:47:29;16.70;;;13.07;;
10851;SDS011;5479;52.046;6.314;2022-10-31T03:49:59;15.20;;;12.27;;
10851;SDS011;5479;52.046;6.314;2022-10-31T03:52:28;15.73;;;11.80;;
10851;SDS011;5479;52.046;6.314;2022-10-31T03:55:04;14.67;;;11.17;;
10851;SDS011;5479;52.046;6.314;2022-10-31T03:57:37;11.93;;;9.80;;
10851;SDS011;5479;52.046;6.314;2022-10-31T04:00:09;42.27;;;9.33;;
10851;SDS011;5479;52.046;6.314;2022-10-31T04:02:40;9.13;;;7.43;;
10851;SDS011;5479;52.046;6.314;2022-10-31T04:05:14;8.23;;;6.80;;
10851;SDS011;5479;52.046;6.314;2022-10-31T04:07:46;9.13;;;7.63;;
10851;SDS011;5479;52.046;6.314;2022-10-31T04:10:16;12.07;;;9.77;;
10851;SDS011;5479;52.046;6.314;2022-10-31T04:12:48;12.90;;;9.90;;
10851;SDS011;5479;52.046;6.314;2022-10-31T04:15:22;11.53;;;9.80;;
10851;SDS011;5479;52.046;6.314;2022-10-31T04:17:52;15.37;;;10.30;;
10851;SDS011;5479;52.046;6.314;2022-10-31T04:20:30;10.87;;;8.97;;
10851;SDS011;5479;52.046;6.314;2022-10-31T04:22:59;10.93;;;8.67;;
10851;SDS011;5479;52.046;6.314;2022-10-31T04:25:27;10.67;;;7.83;;
10851;SDS011;5479;52.046;6.314;2022-10-31T04:27:55;9.77;;;7.50;;
10851;SDS011;5479;52.046;6.314;2022-10-31T04:30:23;10.30;;;7.47;;
10851;SDS011;5479;52.046;6.314;2022-10-31T04:32:51;8.70;;;6.67;;
10851;SDS011;5479;52.046;6.314;2022-10-31T04:35:19;9.47;;;6.83;;
10851;SDS011;5479;52.046;6.314;2022-10-31T04:37:49;10.80;;;7.63;;
10851;SDS011;5479;52.046;6.314;2022-10-31T04:40:17;10.47;;;8.03;;
10851;SDS011;5479;52.046;6.314;2022-10-31T04:42:44;9.47;;;7.80;;
10851;SDS011;5479;52.046;6.314;2022-10-31T04:45:12;9.03;;;7.27;;
10851;SDS011;5479;52.046;6.314;2022-10-31T04:47:40;9.10;;;7.53;;
10851;SDS011;5479;52.046;6.314;2022-10-31T04:50:08;9.47;;;6.43;;
10851;SDS011;5479;52.046;6.314;2022-10-31T04:52:38;8.50;;;6.70;;
10851;SDS011;5479;52.046;6.314;2022-10-31T04:55:08;10.33;;;7.83;;
10851;SDS011;5479;52.046;6.314;2022-10-31T04:57:40;10.57;;;8.13;;
10851;SDS011;5479;52.046;6.314;2022-10-31T05:00:08;12.37;;;7.83;;
10851;SDS011;5479;52.046;6.314;2022-10-31T05:02:42;8.97;;;7.23;;
10851;SDS011;5479;52.046;6.314;2022-10-31T05:05:11;10.07;;;7.13;;
10851;SDS011;5479;52.046;6.314;2022-10-31T05:07:39;9.17;;;6.83;;
10851;SDS011;5479;52.046;6.314;2022-10-31T05:10:09;10.10;;;7.60;;
10851;SDS011;5479;52.046;6.314;2022-10-31T05:12:44;14.20;;;8.70;;
10851;SDS011;5479;52.046;6.314;2022-10-31T05:15:13;12.77;;;8.50;;
10851;SDS011;5479;52.046;6.314;2022-10-31T05:17:42;9.20;;;7.57;;
10851;SDS011;5479;52.046;6.314;2022-10-31T05:20:10;12.73;;;8.33;;
10851;SDS011;5479;52.046;6.314;2022-10-31T05:22:41;11.17;;;7.73;;
10851;SDS011;5479;52.046;6.314;2022-10-31T05:25:12;11.87;;;7.67;;
10851;SDS011;5479;52.046;6.314;2022-10-31T05:27:40;12.87;;;7.93;;
10851;SDS011;5479;52.046;6.314;2022-10-31T05:30:09;12.27;;;8.00;;
10851;SDS011;5479;52.046;6.314;2022-10-31T05:32:38;12.83;;;7.63;;
10851;SDS011;5479;52.046;6.314;2022-10-31T05:35:07;11.97;;;8.10;;
10851;SDS011;5479;52.046;6.314;2022-10-31T05:37:35;13.13;;;7.73;;
10851;SDS011;5479;52.046;6.314;2022-10-31T05:40:04;14.20;;;7.20;;
10851;SDS011;5479;52.046;6.314;2022-10-31T05:42:35;13.97;;;8.67;;
10851;SDS011;5479;52.046;6.314;2022-10-31T05:45:06;13.67;;;7.67;;
10851;SDS011;5479;52.046;6.314;2022-10-31T05:47:36;16.90;;;9.07;;
10851;SDS011;5479;52.046;6.314;2022-10-31T05:50:05;19.40;;;10.23;;
10851;SDS011;5479;52.046;6.314;2022-10-31T05:52:35;14.90;;;9.40;;
10851;SDS011;5479;52.046;6.314;2022-10-31T05:55:02;19.70;;;10.87;;
10851;SDS011;5479;52.046;6.314;2022-10-31T05:57:31;16.90;;;10.93;;
10851;SDS011;5479;52.046;6.314;2022-10-31T06:00:02;19.63;;;10.80;;
10851;SDS011;5479;52.046;6.314;2022-10-31T06:02:31;19.33;;;10.13;;
10851;SDS011;5479;52.046;6.314;2022-10-31T06:05:00;28.83;;;9.90;;
10851;SDS011;5479;52.046;6.314;2022-10-31T06:07:31;15.53;;;10.60;;
10851;SDS011;5479;52.046;6.314;2022-10-31T06:10:00;20.07;;;11.83;;
10851;SDS011;5479;52.046;6.314;2022-10-31T06:12:28;18.77;;;11.80;;
10851;SDS011;5479;52.046;6.314;2022-10-31T06:14:56;18.40;;;12.40;;
10851;SDS011;5479;52.046;6.314;2022-10-31T06:17:26;19.70;;;13.07;;
10851;SDS011;5479;52.046;6.314;2022-10-31T06:19:53;20.90;;;13.10;;
10851;SDS011;5479;52.046;6.314;2022-10-31T06:22:21;20.60;;;13.40;;
10851;SDS011;5479;52.046;6.314;2022-10-31T06:24:49;17.90;;;11.93;;
10851;SDS011;5479;52.046;6.314;2022-10-31T06:27:18;18.90;;;11.93;;
10851;SDS011;5479;52.046;6.314;2022-10-31T06:29:47;20.77;;;12.23;;
10851;SDS011;5479;52.046;6.314;2022-10-31T06:32:15;27.73;;;11.83;;
10851;SDS011;5479;52.046;6.314;2022-10-31T06:34:47;28.47;;;11.73;;
10851;SDS011;5479;52.046;6.314;2022-10-31T06:37:15;24.77;;;12.20;;
10851;SDS011;5479;52.046;6.314;2022-10-31T06:39:43;16.53;;;12.50;;
10851;SDS011;5479;52.046;6.314;2022-10-31T06:42:11;17.40;;;11.90;;
10851;SDS011;5479;52.046;6.314;2022-10-31T06:44:39;15.30;;;12.50;;
10851;SDS011;5479;52.046;6.314;2022-10-31T06:47:09;28.30;;;13.30;;
10851;SDS011;5479;52.046;6.314;2022-10-31T06:49:37;17.53;;;11.70;;
10851;SDS011;5479;52.046;6.314;2022-10-31T06:52:06;17.00;;;13.40;;
10851;SDS011;5479;52.046;6.314;2022-10-31T06:54:34;17.37;;;13.17;;
10851;SDS011;5479;52.046;6.314;2022-10-31T06:57:03;21.27;;;13.63;;
10851;SDS011;5479;52.046;6.314;2022-10-31T06:59:30;20.60;;;15.27;;
10851;SDS011;5479;52.046;6.314;2022-10-31T07:01:58;21.97;;;16.17;;
10851;SDS011;5479;52.046;6.314;2022-10-31T07:04:26;20.43;;;15.70;;
10851;SDS011;5479;52.046;6.314;2022-10-31T07:06:54;22.73;;;16.37;;
10851;SDS011;5479;52.046;6.314;2022-10-31T07:09:24;21.10;;;15.90;;
10851;SDS011;5479;52.046;6.314;2022-10-31T07:11:52;20.70;;;16.00;;
10851;SDS011;5479;52.046;6.314;2022-10-31T07:14:20;19.57;;;15.10;;
10851;SDS011;5479;52.046;6.314;2022-10-31T07:16:48;19.57;;;14.50;;
10851;SDS011;5479;52.046;6.314;2022-10-31T07:19:17;18.20;;;14.97;;
10851;SDS011;5479;52.046;6.314;2022-10-31T07:21:45;20.17;;;14.60;;
10851;SDS011;5479;52.046;6.314;2022-10-31T07:24:13;17.23;;;13.93;;
10851;SDS011;5479;52.046;6.314;2022-10-31T07:26:43;17.60;;;13.60;;
10851;SDS011;5479;52.046;6.314;2022-10-31T07:29:13;16.73;;;13.03;;
10851;SDS011;5479;52.046;6.314;2022-10-31T07:31:41;18.20;;;14.27;;
10851;SDS011;5479;52.046;6.314;2022-10-31T07:34:10;17.70;;;14.67;;
10851;SDS011;5479;52.046;6.314;2022-10-31T07:36:38;15.73;;;13.53;;
10851;SDS011;5479;52.046;6.314;2022-10-31T07:39:06;15.87;;;12.63;;
10851;SDS011;5479;52.046;6.314;2022-10-31T07:41:34;15.57;;;12.40;;
10851;SDS011;5479;52.046;6.314;2022-10-31T07:44:03;14.03;;;12.27;;
10851;SDS011;5479;52.046;6.314;2022-10-31T07:46:31;15.70;;;12.90;;
10851;SDS011;5479;52.046;6.314;2022-10-31T07:48:59;13.70;;;11.97;;
10851;SDS011;5479;52.046;6.314;2022-10-31T07:51:27;12.37;;;10.43;;
10851;SDS011;5479;52.046;6.314;2022-10-31T07:53:55;13.47;;;10.93;;
10851;SDS011;5479;52.046;6.314;2022-10-31T07:56:24;13.67;;;10.80;;
10851;SDS011;5479;52.046;6.314;2022-10-31T07:58:52;13.70;;;11.63;;
10851;SDS011;5479;52.046;6.314;2022-10-31T08:01:22;15.33;;;13.13;;
10851;SDS011;5479;52.046;6.314;2022-10-31T08:03:51;12.67;;;10.73;;
10851;SDS011;5479;52.046;6.314;2022-10-31T08:06:18;16.80;;;14.03;;
10851;SDS011;5479;52.046;6.314;2022-10-31T08:08:46;17.43;;;14.43;;
10851;SDS011;5479;52.046;6.314;2022-10-31T08:11:14;17.93;;;15.20;;
10851;SDS011;5479;52.046;6.314;2022-10-31T08:13:42;22.83;;;16.90;;
10851;SDS011;5479;52.046;6.314;2022-10-31T08:16:10;21.93;;;17.60;;
10851;SDS011;5479;52.046;6.314;2022-10-31T08:18:39;26.13;;;18.70;;
10851;SDS011;5479;52.046;6.314;2022-10-31T08:21:07;24.60;;;19.13;;
10851;SDS011;5479;52.046;6.314;2022-10-31T08:23:38;22.27;;;17.97;;
10851;SDS011;5479;52.046;6.314;2022-10-31T08:26:06;23.77;;;18.87;;
10851;SDS011;5479;52.046;6.314;2022-10-31T08:28:34;24.63;;;20.00;;
10851;SDS011;5479;52.046;6.314;2022-10-31T08:31:02;25.97;;;21.03;;
10851;SDS011;5479;52.046;6.314;2022-10-31T08:33:33;26.93;;;20.43;;
10851;SDS011;5479;52.046;6.314;2022-10-31T08:36:02;24.00;;;18.20;;
10851;SDS011;5479;52.046;6.314;2022-10-31T08:38:30;25.90;;;19.10;;
10851;SDS011;5479;52.046;6.314;2022-10-31T08:40:58;23.87;;;19.43;;
10851;SDS011;5479;52.046;6.314;2022-10-31T08:43:26;25.20;;;20.93;;
10851;SDS011;5479;52.046;6.314;2022-10-31T08:45:54;25.03;;;20.90;;
10851;SDS011;5479;52.046;6.314;2022-10-31T08:48:22;26.57;;;20.50;;
10851;SDS011;5479;52.046;6.314;2022-10-31T08:50:50;24.93;;;19.47;;
10851;SDS011;5479;52.046;6.314;2022-10-31T08:53:25;23.43;;;18.87;;
10851;SDS011;5479;52.046;6.314;2022-10-31T08:55:54;25.13;;;18.10;;
10851;SDS011;5479;52.046;6.314;2022-10-31T08:58:25;21.13;;;16.27;;
10851;SDS011;5479;52.046;6.314;2022-10-31T09:00:53;21.87;;;16.93;;
10851;SDS011;5479;52.046;6.314;2022-10-31T09:03:23;23.83;;;17.50;;
10851;SDS011;5479;52.046;6.314;2022-10-31T09:05:54;21.90;;;16.00;;
10851;SDS011;5479;52.046;6.314;2022-10-31T09:08:28;20.27;;;16.20;;
10851;SDS011;5479;52.046;6.314;2022-10-31T09:10:58;19.60;;;15.17;;
10851;SDS011;5479;52.046;6.314;2022-10-31T09:13:27;22.50;;;17.00;;
10851;SDS011;5479;52.046;6.314;2022-10-31T09:15:56;21.83;;;16.10;;
10851;SDS011;5479;52.046;6.314;2022-10-31T09:18:24;21.30;;;16.30;;
10851;SDS011;5479;52.046;6.314;2022-10-31T09:20:54;19.93;;;15.27;;
10851;SDS011;5479;52.046;6.314;2022-10-31T09:23:25;19.48;;;14.73;;
10851;SDS011;5479;52.046;6.314;2022-10-31T09:25:55;16.92;;;14.13;;
10851;SDS011;5479;52.046;6.314;2022-10-31T09:28:23;14.55;;;11.90;;
10851;SDS011;5479;52.046;6.314;2022-10-31T09:30:53;16.20;;;12.52;;
10851;SDS011;5479;52.046;6.314;2022-10-31T09:33:22;15.32;;;11.57;;
10851;SDS011;5479;52.046;6.314;2022-10-31T09:35:50;13.38;;;10.95;;
10851;SDS011;5479;52.046;6.314;2022-10-31T09:38:19;14.27;;;9.68;;
10851;SDS011;5479;52.046;6.314;2022-10-31T09:40:51;15.27;;;10.30;;
10851;SDS011;5479;52.046;6.314;2022-10-31T09:43:29;13.57;;;9.73;;
10851;SDS011;5479;52.046;6.314;2022-10-31T09:46:07;13.82;;;10.35;;
10851;SDS011;5479;52.046;6.314;2022-10-31T09:48:49;14.00;;;9.05;;
10851;SDS011;5479;52.046;6.314;2022-10-31T09:51:30;14.00;;;8.98;;
10851;SDS011;5479;52.046;6.314;2022-10-31T09:54:04;12.77;;;8.85;;
10851;SDS011;5479;52.046;6.314;2022-10-31T09:56:38;14.30;;;10.30;;
10851;SDS011;5479;52.046;6.314;2022-10-31T09:59:09;16.35;;;10.55;;
10851;SDS011;5479;52.046;6.314;2022-10-31T10:01:42;14.63;;;10.82;;
10851;SDS011;5479;52.046;6.314;2022-10-31T10:04:27;17.10;;;12.77;;
10851;SDS011;5479;52.046;6.314;2022-10-31T10:07:02;15.65;;;11.98;;
10851;SDS011;5479;52.046;6.314;2022-10-31T10:09:39;18.27;;;12.00;;
10851;SDS011;5479;52.046;6.314;2022-10-31T10:12:13;18.30;;;12.80;;
10851;SDS011;5479;52.046;6.314;2022-10-31T10:14:51;18.25;;;13.55;;
10851;SDS011;5479;52.046;6.314;2022-10-31T10:17:32;16.38;;;12.38;;
10851;SDS011;5479;52.046;6.314;2022-10-31T10:20:11;16.70;;;12.93;;
10851;SDS011;5479;52.046;6.314;2022-10-31T10:22:51;17.20;;;12.40;;
10851;SDS011;5479;52.046;6.314;2022-10-31T10:25:26;18.53;;;13.07;;
10851;SDS011;5479;52.046;6.314;2022-10-31T10:28:06;18.75;;;13.70;;
10851;SDS011;5479;52.046;6.314;2022-10-31T10:30:44;19.98;;;14.85;;
10851;SDS011;5479;52.046;6.314;2022-10-31T10:33:15;21.67;;;15.27;;
10851;SDS011;5479;52.046;6.314;2022-10-31T10:35:47;20.30;;;15.80;;
10851;SDS011;5479;52.046;6.314;2022-10-31T10:38:21;22.40;;;15.60;;
10851;SDS011;5479;52.046;6.314;2022-10-31T10:40:52;19.30;;;15.10;;
10851;SDS011;5479;52.046;6.314;2022-10-31T10:43:23;20.17;;;14.52;;
10851;SDS011;5479;52.046;6.314;2022-10-31T10:46:05;18.45;;;15.07;;
10851;SDS011;5479;52.046;6.314;2022-10-31T10:49:04;21.90;;;15.48;;
10851;SDS011;5479;52.046;6.314;2022-10-31T10:51:42;20.85;;;15.30;;
10851;SDS011;5479;52.046;6.314;2022-10-31T10:54:24;21.63;;;15.60;;
10851;SDS011;5479;52.046;6.314;2022-10-31T10:57:10;22.02;;;15.93;;
10851;SDS011;5479;52.046;6.314;2022-10-31T10:59:46;22.05;;;15.27;;
10851;SDS011;5479;52.046;6.314;2022-10-31T11:02:16;20.45;;;15.00;;
10851;SDS011;5479;52.046;6.314;2022-10-31T11:04:45;19.67;;;14.18;;
10851;SDS011;5479;52.046;6.314;2022-10-31T11:07:17;19.30;;;15.17;;
10851;SDS011;5479;52.046;6.314;2022-10-31T11:09:45;22.50;;;15.70;;
10851;SDS011;5479;52.046;6.314;2022-10-31T11:12:17;20.63;;;15.43;;
10851;SDS011;5479;52.046;6.314;2022-10-31T11:14:51;25.03;;;15.57;;
10851;SDS011;5479;52.046;6.314;2022-10-31T11:17:26;19.70;;;15.82;;
10851;SDS011;5479;52.046;6.314;2022-10-31T11:20:00;21.55;;;15.48;;
10851;SDS011;5479;52.046;6.314;2022-10-31T11:22:30;19.30;;;14.95;;
10851;SDS011;5479;52.046;6.314;2022-10-31T11:24:59;21.75;;;16.10;;
10851;SDS011;5479;52.046;6.314;2022-10-31T11:27:27;20.77;;;15.63;;
10851;SDS011;5479;52.046;6.314;2022-10-31T11:30:05;20.00;;;14.57;;
10851;SDS011;5479;52.046;6.314;2022-10-31T11:32:33;22.55;;;16.15;;
10851;SDS011;5479;52.046;6.314;2022-10-31T11:35:02;19.52;;;15.27;;
10851;SDS011;5479;52.046;6.314;2022-10-31T11:37:40;20.05;;;15.13;;
10851;SDS011;5479;52.046;6.314;2022-10-31T11:40:14;23.02;;;15.90;;
10851;SDS011;5479;52.046;6.314;2022-10-31T11:42:44;23.45;;;16.60;;
10851;SDS011;5479;52.046;6.314;2022-10-31T11:45:16;23.08;;;15.57;;
10851;SDS011;5479;52.046;6.314;2022-10-31T11:47:48;21.38;;;15.57;;
10851;SDS011;5479;52.046;6.314;2022-10-31T11:50:18;20.85;;;15.65;;
10851;SDS011;5479;52.046;6.314;2022-10-31T11:52:50;20.38;;;14.70;;
10851;SDS011;5479;52.046;6.314;2022-10-31T11:55:29;21.27;;;15.32;;
10851;SDS011;5479;52.046;6.314;2022-10-31T11:57:59;20.52;;;14.57;;
10851;SDS011;5479;52.046;6.314;2022-10-31T12:00:29;23.27;;;14.57;;
10851;SDS011;5479;52.046;6.314;2022-10-31T12:03:10;19.05;;;13.80;;
10851;SDS011;5479;52.046;6.314;2022-10-31T12:05:49;18.75;;;13.63;;
10851;SDS011;5479;52.046;6.314;2022-10-31T12:08:22;21.60;;;14.13;;
10851;SDS011;5479;52.046;6.314;2022-10-31T12:10:58;21.38;;;13.73;;
10851;SDS011;5479;52.046;6.314;2022-10-31T12:13:34;22.33;;;14.82;;
10851;SDS011;5479;52.046;6.314;2022-10-31T12:16:20;22.20;;;14.90;;
10851;SDS011;5479;52.046;6.314;2022-10-31T12:18:57;19.83;;;13.95;;
10851;SDS011;5479;52.046;6.314;2022-10-31T12:21:37;19.35;;;14.18;;
10851;SDS011;5479;52.046;6.314;2022-10-31T12:24:20;18.88;;;13.35;;
10851;SDS011;5479;52.046;6.314;2022-10-31T12:27:03;22.85;;;14.73;;
10851;SDS011;5479;52.046;6.314;2022-10-31T12:29:47;23.60;;;16.00;;
10851;SDS011;5479;52.046;6.314;2022-10-31T12:32:35;24.85;;;15.88;;
10851;SDS011;5479;52.046;6.314;2022-10-31T12:35:13;23.20;;;16.00;;
10851;SDS011;5479;52.046;6.314;2022-10-31T12:37:56;26.13;;;17.42;;
10851;SDS011;5479;52.046;6.314;2022-10-31T12:40:46;24.55;;;16.02;;
10851;SDS011;5479;52.046;6.314;2022-10-31T12:43:27;23.50;;;15.88;;
10851;SDS011;5479;52.046;6.314;2022-10-31T12:46:04;23.63;;;16.17;;
10851;SDS011;5479;52.046;6.314;2022-10-31T12:48:46;25.58;;;16.67;;
10851;SDS011;5479;52.046;6.314;2022-10-31T12:51:39;24.57;;;16.70;;
10851;SDS011;5479;52.046;6.314;2022-10-31T12:54:18;26.42;;;17.02;;
10851;SDS011;5479;52.046;6.314;2022-10-31T12:56:58;22.58;;;15.95;;
10851;SDS011;5479;52.046;6.314;2022-10-31T12:59:33;20.75;;;15.07;;
10851;SDS011;5479;52.046;6.314;2022-10-31T13:02:06;24.33;;;16.10;;
10851;SDS011;5479;52.046;6.314;2022-10-31T13:04:46;24.17;;;17.55;;
10851;SDS011;5479;52.046;6.314;2022-10-31T13:07:18;25.50;;;17.80;;
10851;SDS011;5479;52.046;6.314;2022-10-31T13:09:51;29.48;;;19.17;;
10851;SDS011;5479;52.046;6.314;2022-10-31T13:12:24;26.15;;;18.27;;
10851;SDS011;5479;52.046;6.314;2022-10-31T13:14:56;25.63;;;17.42;;
10851;SDS011;5479;52.046;6.314;2022-10-31T13:17:27;23.70;;;18.10;;
10851;SDS011;5479;52.046;6.314;2022-10-31T13:20:19;24.88;;;16.65;;
10851;SDS011;5479;52.046;6.314;2022-10-31T13:22:51;24.13;;;15.27;;
10851;SDS011;5479;52.046;6.314;2022-10-31T13:25:23;23.60;;;17.33;;
10851;SDS011;5479;52.046;6.314;2022-10-31T13:27:54;26.38;;;18.17;;
10851;SDS011;5479;52.046;6.314;2022-10-31T13:30:26;22.52;;;16.63;;
10851;SDS011;5479;52.046;6.314;2022-10-31T13:32:58;27.48;;;18.10;;
10851;SDS011;5479;52.046;6.314;2022-10-31T13:35:33;29.42;;;19.77;;
10851;SDS011;5479;52.046;6.314;2022-10-31T13:38:10;30.27;;;19.77;;
10851;SDS011;5479;52.046;6.314;2022-10-31T13:40:47;27.75;;;19.50;;
10851;SDS011;5479;52.046;6.314;2022-10-31T13:43:27;29.48;;;20.30;;
10851;SDS011;5479;52.046;6.314;2022-10-31T13:48:51;27.75;;;19.27;;
10851;SDS011;5479;52.046;6.314;2022-10-31T13:51:28;27.65;;;18.73;;
10851;SDS011;5479;52.046;6.314;2022-10-31T13:53:58;27.67;;;18.58;;
10851;SDS011;5479;52.046;6.314;2022-10-31T13:56:28;28.23;;;19.27;;
10851;SDS011;5479;52.046;6.314;2022-10-31T13:58:59;29.95;;;18.75;;
10851;SDS011;5479;52.046;6.314;2022-10-31T14:01:46;29.00;;;19.40;;
10851;SDS011;5479;52.046;6.314;2022-10-31T14:04:17;27.50;;;19.08;;
10851;SDS011;5479;52.046;6.314;2022-10-31T14:06:52;28.50;;;19.38;;
10851;SDS011;5479;52.046;6.314;2022-10-31T14:09:26;31.50;;;20.33;;
10851;SDS011;5479;52.046;6.314;2022-10-31T14:11:59;30.15;;;20.73;;
10851;SDS011;5479;52.046;6.314;2022-10-31T14:14:33;28.52;;;20.00;;
10851;SDS011;5479;52.046;6.314;2022-10-31T14:17:12;34.85;;;22.15;;
10851;SDS011;5479;52.046;6.314;2022-10-31T14:19:56;28.33;;;21.30;;
10851;SDS011;5479;52.046;6.314;2022-10-31T14:22:31;32.30;;;20.40;;
10851;SDS011;5479;52.046;6.314;2022-10-31T14:25:00;30.70;;;20.40;;
10851;SDS011;5479;52.046;6.314;2022-10-31T14:27:33;32.42;;;21.13;;
10851;SDS011;5479;52.046;6.314;2022-10-31T14:30:15;32.53;;;22.73;;
10851;SDS011;5479;52.046;6.314;2022-10-31T14:32:48;30.38;;;21.30;;
10851;SDS011;5479;52.046;6.314;2022-10-31T14:35:18;30.20;;;21.47;;
10851;SDS011;5479;52.046;6.314;2022-10-31T14:41:05;33.37;;;22.67;;
10851;SDS011;5479;52.046;6.314;2022-10-31T14:43:52;29.93;;;20.97;;
10851;SDS011;5479;52.046;6.314;2022-10-31T14:46:48;29.50;;;20.93;;
10851;SDS011;5479;52.046;6.314;2022-10-31T14:49:27;28.93;;;20.97;;
10851;SDS011;5479;52.046;6.314;2022-10-31T14:52:07;33.80;;;22.53;;
10851;SDS011;5479;52.046;6.314;2022-10-31T14:54:38;33.90;;;21.70;;
10851;SDS011;5479;52.046;6.314;2022-10-31T14:57:13;29.57;;;21.07;;
10851;SDS011;5479;52.046;6.314;2022-10-31T14:59:47;32.53;;;20.93;;
10851;SDS011;5479;52.046;6.314;2022-10-31T15:02:18;28.77;;;20.80;;
10851;SDS011;5479;52.046;6.314;2022-10-31T15:04:52;29.43;;;20.80;;
10851;SDS011;5479;52.046;6.314;2022-10-31T15:07:24;31.73;;;21.73;;
10851;SDS011;5479;52.046;6.314;2022-10-31T15:09:59;32.37;;;21.70;;
10851;SDS011;5479;52.046;6.314;2022-10-31T15:12:31;31.03;;;20.83;;
10851;SDS011;5479;52.046;6.314;2022-10-31T15:15:10;29.67;;;21.43;;